Time;durP1;ratioP1;P1;durP2;ratioP2;P2;SDS_P1;SDS_P2;PMS_P1;PMS_P2;Temp;Humidity;BMP_temperature;BMP_pressure;BME280_temperature;BME280_humidity;BME280_pressure;Samples;Min_cycle;Max_cycle;Signal;HPM_P1;HPM_P2
2021/08/08 00:00:59;;;;;;;0.60;0.60;;;23.80;51.10;;;;;;5116573;28;20082;-53
2021/08/08 00:03:26;;;;;;;0.77;0.77;;;23.80;51.10;;;;;;5135263;28;20039;-53
2021/08/08 00:05:51;;;;;;;0.80;0.80;;;23.80;51.20;;;;;;5135199;28;20054;-54
2021/08/08 00:08:18;;;;;;;0.70;0.70;;;23.80;51.20;;;;;;5135172;28;20047;-50
2021/08/08 00:10:44;;;;;;;0.60;0.60;;;23.70;51.10;;;;;;5135146;28;20107;-50
2021/08/08 00:13:10;;;;;;;0.70;0.70;;;23.80;51.20;;;;;;5135084;28;20043;-53
2021/08/08 00:15:37;;;;;;;0.70;0.70;;;23.80;51.10;;;;;;5135417;28;20054;-53
2021/08/08 00:18:05;;;;;;;0.90;0.90;;;23.80;51.20;;;;;;5134889;28;20050;-53
2021/08/08 00:20:31;;;;;;;0.70;0.70;;;23.70;51.20;;;;;;5115713;28;20047;-54
2021/08/08 00:22:56;;;;;;;0.65;0.65;;;23.70;51.20;;;;;;5134984;28;20100;-53
2021/08/08 00:25:23;;;;;;;0.80;0.80;;;23.70;51.20;;;;;;5134909;28;20130;-52
2021/08/08 00:27:48;;;;;;;0.70;0.70;;;23.70;51.20;;;;;;5134842;28;20138;-54
2021/08/08 00:30:14;;;;;;;0.80;0.80;;;23.70;51.30;;;;;;5134629;28;20086;-48
2021/08/08 00:32:41;;;;;;;0.80;0.80;;;23.70;51.30;;;;;;5116352;28;20062;-53
2021/08/08 00:35:10;;;;;;;0.70;0.70;;;23.70;51.30;;;;;;5114968;28;20130;-54
2021/08/08 00:37:37;;;;;;;0.60;0.60;;;23.70;51.30;;;;;;5116431;28;20047;-50
2021/08/08 00:40:05;;;;;;;0.82;0.82;;;23.70;51.30;;;;;;5115779;28;20117;-52
2021/08/08 00:42:31;;;;;;;0.60;0.60;;;23.70;51.30;;;;;;5116056;28;20047;-52
2021/08/08 00:44:58;;;;;;;0.60;0.60;;;23.70;51.30;;;;;;5116064;28;20053;-55
2021/08/08 00:47:24;;;;;;;0.70;0.70;;;23.70;51.40;;;;;;5116399;28;20173;-54
2021/08/08 00:49:50;;;;;;;0.70;0.70;;;23.70;51.40;;;;;;5115459;28;20067;-54
2021/08/08 00:52:15;;;;;;;0.80;0.80;;;23.70;51.30;;;;;;5114870;28;20138;-55
2021/08/08 00:54:45;;;;;;;0.77;0.77;;;23.70;51.40;;;;;;5134384;28;20043;-52
2021/08/08 00:57:11;;;;;;;0.70;0.70;;;23.70;51.40;;;;;;5116001;28;20050;-53
2021/08/08 00:59:38;;;;;;;0.60;0.60;;;23.70;51.40;;;;;;5115384;28;20053;-55
2021/08/08 01:02:06;;;;;;;0.80;0.70;;;23.70;51.40;;;;;;5134542;28;20065;-54
2021/08/08 01:04:41;;;;;;;0.70;0.70;;;23.70;51.40;;;;;;5116318;28;20051;-51
2021/08/08 01:07:18;;;;;;;0.70;0.70;;;23.70;51.50;;;;;;5115985;28;20058;-53
2021/08/08 01:09:49;;;;;;;1.45;0.80;;;23.60;51.40;;;;;;5134299;28;20459;-51
2021/08/08 01:12:17;;;;;;;0.73;0.73;;;23.70;51.50;;;;;;5115112;28;20083;-55
2021/08/08 01:14:49;;;;;;;0.77;0.77;;;23.60;51.40;;;;;;5133158;28;20375;-54
2021/08/08 01:17:16;;;;;;;0.80;0.80;;;23.70;51.50;;;;;;5115570;28;20043;-53
2021/08/08 01:19:55;;;;;;;0.60;0.60;;;23.60;51.40;;;;;;5115825;28;20054;-50
2021/08/08 01:22:25;;;;;;;0.63;0.63;;;23.60;51.50;;;;;;5115851;28;20047;-55
2021/08/08 01:24:51;;;;;;;0.80;0.80;;;23.60;51.50;;;;;;5115765;28;20047;-55
2021/08/08 01:27:18;;;;;;;0.82;0.82;;;23.60;51.50;;;;;;5116096;28;20555;-52
2021/08/08 01:29:45;;;;;;;0.70;0.70;;;23.60;51.50;;;;;;5113517;28;20475;-51
2021/08/08 01:32:11;;;;;;;0.80;0.80;;;23.60;51.50;;;;;;5115331;28;20043;-53
2021/08/08 01:34:38;;;;;;;0.90;0.90;;;23.60;51.60;;;;;;5115368;28;20047;-53
2021/08/08 01:37:07;;;;;;;0.90;0.90;;;23.60;51.60;;;;;;5115260;28;20058;-53
2021/08/08 01:39:34;;;;;;;0.60;0.60;;;23.60;51.60;;;;;;5113638;28;20138;-52
2021/08/08 01:42:07;;;;;;;0.70;0.70;;;23.60;51.60;;;;;;5113201;28;20058;-53
2021/08/08 01:44:44;;;;;;;0.50;0.50;;;23.60;51.70;;;;;;5115443;28;20066;-54
2021/08/08 01:47:13;;;;;;;0.77;0.77;;;23.60;51.60;;;;;;5115200;28;20055;-53
2021/08/08 01:49:43;;;;;;;0.70;0.70;;;23.60;51.60;;;;;;5114170;28;20052;-51
2021/08/08 01:52:09;;;;;;;0.80;0.80;;;23.50;51.60;;;;;;5134114;28;20066;-55
2021/08/08 01:54:44;;;;;;;0.60;0.60;;;23.60;51.70;;;;;;5115743;28;20138;-51
2021/08/08 01:57:15;;;;;;;0.70;0.70;;;23.60;51.70;;;;;;5115655;28;20058;-53
2021/08/08 01:59:45;;;;;;;0.83;0.77;;;23.60;51.80;;;;;;5115265;28;20047;-51
2021/08/08 02:02:13;;;;;;;0.60;0.60;;;23.50;51.70;;;;;;5116740;28;20775;-54
2021/08/08 02:04:43;;;;;;;0.70;0.65;;;23.50;51.70;;;;;;5119108;28;20054;-53
2021/08/08 02:07:15;;;;;;;0.75;0.75;;;23.50;51.70;;;;;;5118758;28;20142;-51
2021/08/08 02:09:44;;;;;;;0.70;0.70;;;23.50;51.70;;;;;;5119187;28;20047;-54
2021/08/08 02:12:10;;;;;;;0.70;0.70;;;23.50;51.70;;;;;;5118481;28;20057;-55
2021/08/08 02:14:38;;;;;;;0.70;0.70;;;23.50;51.70;;;;;;5118479;28;20517;-55
2021/08/08 02:17:05;;;;;;;0.80;0.80;;;23.50;51.80;;;;;;5118508;28;20097;-55
2021/08/08 02:19:32;;;;;;;0.70;0.70;;;23.50;51.80;;;;;;5118299;28;20086;-54
2021/08/08 02:22:01;;;;;;;0.93;0.93;;;23.50;51.90;;;;;;5117508;28;20073;-54
2021/08/08 02:24:33;;;;;;;0.65;0.65;;;23.50;51.90;;;;;;5118965;28;20065;-50
2021/08/08 02:27:16;;;;;;;0.73;0.73;;;23.50;51.90;;;;;;5118916;28;20069;-55
2021/08/08 02:29:45;;;;;;;0.90;0.90;;;23.50;51.90;;;;;;5117394;28;20051;-51
2021/08/08 02:32:11;;;;;;;0.65;0.60;;;23.50;52.00;;;;;;5118222;28;20054;-51
2021/08/08 02:34:42;;;;;;;0.70;0.70;;;23.40;51.90;;;;;;5118284;28;20047;-50
2021/08/08 02:37:09;;;;;;;0.80;0.80;;;23.40;51.90;;;;;;5118053;28;20411;-53
2021/08/08 02:39:38;;;;;;;1.20;1.10;;;23.40;51.90;;;;;;5117832;28;20047;-55
2021/08/08 02:42:03;;;;;;;0.70;0.70;;;23.40;51.90;;;;;;5118069;28;20502;-51
2021/08/08 02:44:31;;;;;;;0.60;0.60;;;23.40;51.90;;;;;;5118016;28;20047;-53
2021/08/08 02:46:57;;;;;;;0.70;0.70;;;23.40;52.00;;;;;;5116298;28;20055;-55
2021/08/08 02:49:23;;;;;;;0.60;0.60;;;23.40;52.00;;;;;;5118133;28;20055;-53
2021/08/08 02:51:49;;;;;;;0.60;0.60;;;23.40;52.00;;;;;;5116990;28;20047;-53
2021/08/08 02:54:16;;;;;;;0.80;0.80;;;23.40;52.10;;;;;;5117876;28;20058;-55
2021/08/08 02:56:43;;;;;;;0.60;0.60;;;23.30;52.00;;;;;;5116247;28;20055;-51
2021/08/08 02:59:09;;;;;;;1.05;0.60;;;23.40;52.10;;;;;;5117421;28;20043;-51
2021/08/08 03:01:42;;;;;;;0.70;0.70;;;23.40;52.10;;;;;;5117985;28;20458;-52
2021/08/08 03:04:08;;;;;;;0.77;0.73;;;23.40;52.20;;;;;;5136158;28;20062;-53
2021/08/08 03:06:34;;;;;;;0.75;0.75;;;23.40;52.20;;;;;;5118227;28;20050;-48
2021/08/08 03:08:59;;;;;;;0.57;0.57;;;23.30;52.10;;;;;;5136518;28;20043;-51
2021/08/08 03:11:25;;;;;;;0.70;0.70;;;23.40;52.10;;;;;;5136425;28;20047;-51
2021/08/08 03:13:50;;;;;;;0.77;0.77;;;23.30;52.20;;;;;;5117842;28;20112;-51
2021/08/08 03:16:16;;;;;;;0.57;0.57;;;23.30;52.20;;;;;;5117612;28;20157;-52
2021/08/08 03:18:43;;;;;;;0.80;0.80;;;23.30;52.20;;;;;;5115282;28;20070;-54
2021/08/08 03:21:09;;;;;;;0.70;0.70;;;23.30;52.20;;;;;;5116807;28;20055;-51
2021/08/08 03:23:35;;;;;;;0.60;0.60;;;23.30;52.20;;;;;;5117318;28;20058;-51
2021/08/08 03:26:02;;;;;;;1.08;0.80;;;23.30;52.30;;;;;;5115619;28;20423;-55
2021/08/08 03:28:29;;;;;;;0.60;0.60;;;23.30;52.30;;;;;;5117861;28;20047;-55
2021/08/08 03:30:54;;;;;;;0.63;0.63;;;23.20;52.20;;;;;;5117677;28;20049;-54
2021/08/08 03:33:21;;;;;;;0.60;0.60;;;23.20;52.30;;;;;;5115935;28;20105;-53
2021/08/08 03:35:46;;;;;;;0.80;0.77;;;23.30;52.40;;;;;;5117773;28;20047;-52
2021/08/08 03:38:12;;;;;;;0.73;0.65;;;23.20;52.30;;;;;;5117145;28;20058;-51
2021/08/08 03:40:38;;;;;;;0.70;0.70;;;23.20;52.30;;;;;;5117059;28;20075;-52
2021/08/08 03:43:04;;;;;;;0.70;0.70;;;23.30;52.40;;;;;;5116033;28;20050;-51
2021/08/08 03:45:30;;;;;;;0.60;0.60;;;23.20;52.30;;;;;;5117339;28;20051;-52
2021/08/08 03:47:57;;;;;;;0.60;0.60;;;23.30;52.40;;;;;;5117054;28;20066;-53
2021/08/08 03:50:24;;;;;;;0.60;0.60;;;23.20;52.40;;;;;;5115928;28;20054;-55
2021/08/08 03:52:50;;;;;;;0.70;0.70;;;23.20;52.40;;;;;;5117563;28;20058;-54
2021/08/08 03:55:18;;;;;;;0.60;0.60;;;23.20;52.40;;;;;;5116924;28;20047;-52
2021/08/08 03:57:43;;;;;;;0.60;0.60;;;23.20;52.30;;;;;;5135286;28;20055;-50
2021/08/08 04:00:15;;;;;;;0.80;0.80;;;23.20;52.40;;;;;;5117033;28;20387;-50
2021/08/08 04:02:41;;;;;;;0.88;0.85;;;23.20;52.40;;;;;;5135469;28;20051;-46
2021/08/08 04:05:08;;;;;;;0.70;0.70;;;23.20;52.40;;;;;;5115412;28;20495;-51
2021/08/08 04:07:34;;;;;;;0.68;0.68;;;23.20;52.30;;;;;;5114760;28;20207;-50
2021/08/08 04:10:00;;;;;;;0.70;0.70;;;23.30;52.40;;;;;;5116451;28;20047;-50
2021/08/08 04:12:26;;;;;;;0.80;0.70;;;23.30;52.30;;;;;;5117016;28;20395;-49
2021/08/08 04:14:52;;;;;;;0.60;0.60;;;23.30;52.30;;;;;;5117190;28;20043;-51
2021/08/08 04:17:18;;;;;;;1.27;1.05;;;23.30;52.20;;;;;;5135021;28;20413;-46
2021/08/08 04:19:43;;;;;;;0.70;0.70;;;23.40;52.20;;;;;;5116560;28;20126;-49
2021/08/08 04:22:09;;;;;;;0.80;0.80;;;23.40;52.10;;;;;;5114916;28;20104;-52
2021/08/08 04:24:35;;;;;;;0.70;0.60;;;23.50;52.10;;;;;;5098698;28;20138;-52
2021/08/08 04:27:00;;;;;;;0.70;0.70;;;23.50;52.00;;;;;;5134671;28;20062;-49
2021/08/08 04:29:26;;;;;;;0.60;0.60;;;23.50;51.90;;;;;;5116388;28;20055;-48
2021/08/08 04:31:51;;;;;;;0.70;0.70;;;23.50;51.80;;;;;;5116474;28;20047;-53
2021/08/08 04:34:17;;;;;;;0.52;0.52;;;23.60;51.80;;;;;;5134817;28;20054;-49
2021/08/08 04:36:43;;;;;;;0.68;0.68;;;23.60;51.80;;;;;;5115164;28;20074;-53
2021/08/08 04:39:09;;;;;;;0.70;0.70;;;23.60;51.70;;;;;;5114162;28;20567;-51
2021/08/08 04:41:35;;;;;;;0.80;0.80;;;23.60;51.60;;;;;;5116168;28;20410;-49
2021/08/08 04:44:01;;;;;;;0.60;0.60;;;23.60;51.60;;;;;;5116405;28;20158;-48
2021/08/08 04:46:27;;;;;;;0.60;0.60;;;23.60;51.70;;;;;;5116160;28;20051;-50
2021/08/08 04:48:53;;;;;;;0.50;0.50;;;23.60;51.80;;;;;;5116120;28;20051;-50
2021/08/08 04:51:18;;;;;;;0.50;0.50;;;23.60;51.80;;;;;;5115512;28;20184;-51
2021/08/08 04:53:44;;;;;;;0.70;0.70;;;23.60;51.80;;;;;;5116423;28;20479;-47
2021/08/08 04:56:10;;;;;;;0.70;0.70;;;23.60;51.80;;;;;;5115950;28;20131;-47
2021/08/08 04:58:35;;;;;;;0.60;0.60;;;23.60;51.80;;;;;;5115219;28;20047;-50
2021/08/08 05:01:01;;;;;;;0.68;0.68;;;23.60;51.80;;;;;;5115904;28;20050;-47
2021/08/08 05:03:28;;;;;;;0.70;0.70;;;23.60;51.80;;;;;;5115811;28;20509;-50
2021/08/08 05:05:54;;;;;;;0.40;0.40;;;23.60;51.70;;;;;;5116107;28;20051;-49
2021/08/08 05:08:19;;;;;;;0.50;0.50;;;23.60;51.70;;;;;;5098725;28;20383;-52
2021/08/08 05:10:45;;;;;;;0.70;0.70;;;23.70;51.70;;;;;;5116288;28;20035;-46
2021/08/08 05:13:11;;;;;;;0.57;0.57;;;23.60;51.60;;;;;;5115683;28;20051;-52
2021/08/08 05:15:36;;;;;;;0.63;0.63;;;23.70;51.60;;;;;;5115629;28;20047;-51
2021/08/08 05:18:02;;;;;;;0.60;0.60;;;23.60;51.50;;;;;;5134031;28;20055;-53
2021/08/08 05:20:28;;;;;;;0.50;0.50;;;23.70;51.60;;;;;;5116026;28;20467;-51
2021/08/08 05:22:56;;;;;;;0.93;0.93;;;23.60;51.60;;;;;;5116111;28;20107;-52
2021/08/08 05:25:21;;;;;;;0.65;0.65;;;23.60;51.60;;;;;;5115532;28;20075;-54
2021/08/08 05:27:47;;;;;;;0.60;0.60;;;23.60;51.60;;;;;;5134620;28;20463;-53
2021/08/08 05:30:14;;;;;;;0.70;0.70;;;23.60;51.60;;;;;;5115366;28;20078;-52
2021/08/08 05:32:40;;;;;;;0.85;0.85;;;23.60;51.60;;;;;;5133960;28;20549;-53
2021/08/08 05:35:06;;;;;;;0.60;0.60;;;23.60;51.60;;;;;;5134077;27;20066;-50
2021/08/08 05:37:32;;;;;;;0.60;0.60;;;23.60;51.60;;;;;;5115448;28;20047;-48
2021/08/08 05:40:04;;;;;;;0.70;0.70;;;23.70;51.60;;;;;;5115051;28;20054;-51
2021/08/08 05:42:30;;;;;;;0.68;0.68;;;23.70;51.50;;;;;;5115675;28;20047;-47
2021/08/08 05:44:56;;;;;;;0.68;0.60;;;23.70;51.50;;;;;;5115537;28;20054;-49
2021/08/08 05:47:22;;;;;;;0.52;0.52;;;23.80;51.40;;;;;;5114132;28;20047;-48
2021/08/08 05:49:48;;;;;;;0.60;0.60;;;23.70;51.30;;;;;;5115658;28;20039;-48
2021/08/08 05:52:14;;;;;;;0.85;0.85;;;23.70;51.40;;;;;;5133580;28;20458;-47
2021/08/08 05:54:41;;;;;;;0.63;0.63;;;23.70;51.40;;;;;;5133578;28;20078;-49
2021/08/08 05:57:06;;;;;;;0.60;0.60;;;23.70;51.40;;;;;;5133914;28;20077;-47
2021/08/08 05:59:32;;;;;;;0.70;0.70;;;23.70;51.50;;;;;;5114945;28;20051;-47
2021/08/08 06:01:57;;;;;;;0.50;0.50;;;23.70;51.50;;;;;;5133299;28;20483;-51
2021/08/08 06:04:23;;;;;;;0.75;0.75;;;23.60;51.50;;;;;;5113896;28;20507;-48
2021/08/08 06:06:50;;;;;;;0.60;0.60;;;23.60;51.60;;;;;;5114817;28;20055;-47
2021/08/08 06:09:16;;;;;;;0.60;0.60;;;23.60;51.60;;;;;;5133207;28;20134;-46
2021/08/08 06:11:41;;;;;;;0.70;0.70;;;23.60;51.60;;;;;;5113581;28;20142;-48
2021/08/08 06:14:07;;;;;;;0.70;0.70;;;23.60;51.70;;;;;;5133223;28;20047;-48
2021/08/08 06:16:33;;;;;;;0.77;0.70;;;23.60;51.70;;;;;;5114803;28;20483;-48
2021/08/08 06:18:59;;;;;;;0.70;0.70;;;23.60;51.70;;;;;;5113548;28;20048;-51
2021/08/08 06:21:25;;;;;;;0.50;0.50;;;23.60;51.70;;;;;;5114693;28;20146;-48
2021/08/08 06:23:54;;;;;;;0.60;0.60;;;23.60;51.70;;;;;;5114809;28;20051;-47
2021/08/08 06:26:20;;;;;;;0.60;0.60;;;23.60;51.70;;;;;;5114687;28;20096;-52
2021/08/08 06:28:45;;;;;;;0.70;0.70;;;23.60;51.70;;;;;;5133050;28;20047;-51
2021/08/08 06:31:11;;;;;;;0.70;0.70;;;23.60;51.70;;;;;;5115246;28;20134;-52
2021/08/08 06:33:36;;;;;;;0.60;0.60;;;23.60;51.70;;;;;;5114492;28;20449;-49
2021/08/08 06:36:03;;;;;;;0.50;0.50;;;23.60;51.70;;;;;;5114555;28;20047;-49
2021/08/08 06:38:29;;;;;;;0.50;0.50;;;23.60;51.70;;;;;;5114518;28;20078;-50
2021/08/08 06:40:55;;;;;;;0.73;0.73;;;23.60;51.70;;;;;;5133063;28;20375;-53
2021/08/08 06:43:22;;;;;;;0.60;0.60;;;23.60;51.70;;;;;;5115021;28;20047;-51
2021/08/08 06:45:50;;;;;;;0.70;0.70;;;23.60;51.70;;;;;;5113915;28;20051;-53
2021/08/08 06:48:17;;;;;;;0.63;0.63;;;23.50;51.70;;;;;;5116299;28;20066;-53
2021/08/08 06:50:43;;;;;;;0.70;0.70;;;23.60;51.70;;;;;;5117988;28;20501;-48
2021/08/08 06:53:09;;;;;;;0.60;0.60;;;23.60;51.70;;;;;;5137030;28;20047;-51
2021/08/08 06:55:35;;;;;;;0.70;0.70;;;23.60;51.70;;;;;;5117764;28;20051;-50
2021/08/08 06:58:00;;;;;;;0.57;0.57;;;23.60;51.70;;;;;;5136439;28;20130;-49
2021/08/08 07:00:27;;;;;;;0.60;0.60;;;23.60;51.70;;;;;;5117750;28;20047;-50
2021/08/08 07:02:54;;;;;;;0.70;0.70;;;23.60;51.70;;;;;;5117736;28;20051;-52
2021/08/08 07:05:20;;;;;;;0.60;0.60;;;23.60;51.70;;;;;;5118286;28;20138;-50
2021/08/08 07:07:46;;;;;;;0.77;0.77;;;23.50;51.70;;;;;;5117579;28;20129;-49
2021/08/08 07:10:11;;;;;;;0.68;0.68;;;23.50;51.70;;;;;;5116158;28;20047;-51
2021/08/08 07:12:38;;;;;;;0.55;0.55;;;23.50;51.70;;;;;;5100931;28;20059;-46
2021/08/08 07:15:07;;;;;;;0.77;0.77;;;23.60;51.70;;;;;;5100580;28;20086;-50
2021/08/08 07:17:34;;;;;;;0.50;0.50;;;23.60;51.70;;;;;;5117573;28;20047;-46
2021/08/08 07:20:03;;;;;;;0.60;0.60;;;23.60;51.70;;;;;;5117588;28;20106;-49
2021/08/08 07:22:29;;;;;;;0.60;0.60;;;23.60;51.70;;;;;;5117490;28;20051;-50
2021/08/08 07:24:55;;;;;;;0.60;0.60;;;23.60;51.70;;;;;;5117449;28;20104;-48
2021/08/08 07:27:21;;;;;;;0.68;0.68;;;23.60;51.70;;;;;;5135757;28;20180;-50
2021/08/08 07:29:48;;;;;;;0.60;0.60;;;23.50;51.70;;;;;;5117500;28;20107;-46
2021/08/08 07:32:14;;;;;;;0.60;0.60;;;23.50;51.70;;;;;;5117353;28;20051;-46
2021/08/08 07:34:41;;;;;;;0.70;0.70;;;23.50;51.70;;;;;;5117541;28;20200;-49
2021/08/08 07:37:07;;;;;;;0.60;0.60;;;23.50;51.70;;;;;;5117482;28;20047;-49
2021/08/08 07:39:36;;;;;;;0.60;0.60;;;23.50;51.70;;;;;;5115941;28;20051;-52
2021/08/08 07:42:03;;;;;;;0.63;0.63;;;23.50;51.70;;;;;;5115398;28;20047;-48
2021/08/08 07:44:29;;;;;;;1.00;0.80;;;23.50;51.70;;;;;;5135539;28;20054;-50
2021/08/08 07:46:54;;;;;;;0.68;0.68;;;23.60;51.70;;;;;;5116140;28;20047;-50
2021/08/08 07:49:20;;;;;;;0.60;0.60;;;23.50;51.70;;;;;;5116992;28;20082;-48
2021/08/08 07:51:46;;;;;;;0.50;0.50;;;23.50;51.60;;;;;;5117278;28;20054;-50
2021/08/08 07:54:13;;;;;;;0.80;0.80;;;23.50;51.70;;;;;;5116408;28;20086;-49
2021/08/08 07:56:39;;;;;;;0.95;0.60;;;23.50;52.20;;;;;;5115427;28;20055;-50
2021/08/08 07:59:05;;;;;;;0.55;0.55;;;23.50;51.60;;;;;;5115745;28;20394;-48
2021/08/08 08:01:32;;;;;;;0.60;0.60;;;23.50;51.70;;;;;;5116616;28;20138;-48
2021/08/08 08:03:58;;;;;;;0.85;0.70;;;23.50;51.70;;;;;;5135593;28;20066;-52
2021/08/08 08:06:24;;;;;;;0.57;0.50;;;23.60;51.80;;;;;;5117430;28;20138;-53
2021/08/08 08:08:49;;;;;;;0.65;0.65;;;23.50;51.70;;;;;;5116888;28;20551;-51
2021/08/08 08:11:17;;;;;;;0.60;0.60;;;23.60;51.70;;;;;;5135080;28;20046;-52
2021/08/08 08:13:43;;;;;;;0.60;0.60;;;23.50;51.60;;;;;;5117176;28;20073;-52
2021/08/08 08:16:08;;;;;;;0.65;0.65;;;23.60;51.70;;;;;;5135780;28;20554;-48
2021/08/08 08:18:34;;;;;;;0.55;0.55;;;23.60;51.60;;;;;;5135243;28;20047;-55
2021/08/08 08:21:00;;;;;;;0.63;0.63;;;23.60;51.60;;;;;;5116495;28;20039;-52
2021/08/08 08:23:26;;;;;;;0.73;0.73;;;23.60;51.60;;;;;;5116530;28;20445;-52
2021/08/08 08:25:52;;;;;;;0.50;0.50;;;23.50;51.60;;;;;;5116677;28;20043;-52
2021/08/08 08:28:17;;;;;;;0.63;0.60;;;23.60;51.70;;;;;;5134708;28;20050;-54
2021/08/08 08:30:43;;;;;;;0.50;0.50;;;23.60;51.70;;;;;;5134852;28;20051;-50
2021/08/08 08:33:09;;;;;;;0.50;0.50;;;23.60;51.70;;;;;;5116445;28;20047;-51
2021/08/08 08:35:35;;;;;;;0.95;0.57;;;23.60;51.70;;;;;;5135235;28;20055;-52
2021/08/08 08:38:01;;;;;;;0.50;0.50;;;23.60;51.60;;;;;;5115159;28;20513;-50
2021/08/08 08:40:26;;;;;;;0.65;0.65;;;23.50;51.60;;;;;;5116293;28;20039;-49
2021/08/08 08:42:57;;;;;;;0.40;0.40;;;23.60;51.60;;;;;;5116085;28;20047;-52
2021/08/08 08:45:23;;;;;;;0.60;0.60;;;23.60;51.70;;;;;;5116787;28;20051;-49
2021/08/08 08:47:50;;;;;;;0.50;0.50;;;23.60;51.60;;;;;;5134709;28;20051;-52
2021/08/08 08:50:17;;;;;;;0.50;0.50;;;23.60;51.60;;;;;;5114984;28;20051;-47
2021/08/08 08:52:46;;;;;;;0.60;0.60;;;23.60;51.50;;;;;;5114505;28;20145;-54
2021/08/08 08:55:12;;;;;;;0.50;0.50;;;23.60;51.50;;;;;;5115877;28;20078;-52
2021/08/08 08:57:41;;;;;;;0.60;0.60;;;23.70;51.50;;;;;;5116137;28;20475;-52
2021/08/08 09:00:09;;;;;;;0.50;0.50;;;23.60;51.40;;;;;;5115770;28;20039;-54
2021/08/08 09:02:38;;;;;;;0.60;0.60;;;23.60;51.50;;;;;;5116375;28;20059;-53
2021/08/08 09:05:04;;;;;;;0.70;0.70;;;23.60;51.40;;;;;;5115839;28;20495;-50
2021/08/08 09:07:30;;;;;;;0.60;0.60;;;23.70;51.40;;;;;;5133517;28;20440;-51
2021/08/08 09:09:57;;;;;;;0.65;0.65;;;23.70;51.30;;;;;;5099069;27;20035;-47
2021/08/08 09:12:24;;;;;;;0.70;0.70;;;23.80;51.40;;;;;;5134257;28;20062;-49
2021/08/08 09:15:03;;;;;;;0.43;0.43;;;23.80;51.20;;;;;;5115765;28;20513;-48
2021/08/08 09:17:36;;;;;;;0.60;0.60;;;23.80;51.10;;;;;;5114539;28;20056;-53
2021/08/08 09:20:09;;;;;;;0.63;0.63;;;23.80;51.20;;;;;;5114265;28;20398;-48
2021/08/08 09:22:37;;;;;;;0.70;0.70;;;23.80;51.10;;;;;;5115895;28;20047;-48
2021/08/08 09:25:04;;;;;;;0.60;0.60;;;23.90;51.10;;;;;;5115834;28;20122;-50
2021/08/08 09:27:31;;;;;;;0.60;0.60;;;23.80;51.00;;;;;;5115397;28;20051;-49
2021/08/08 09:29:56;;;;;;;0.60;0.60;;;23.80;51.00;;;;;;5115480;28;20486;-49
2021/08/08 09:32:29;;;;;;;0.52;0.52;;;23.80;51.00;;;;;;5115983;28;20047;-47
2021/08/08 09:35:05;;;;;;;0.70;0.70;;;23.80;51.10;;;;;;5115283;28;20141;-48
2021/08/08 09:37:30;;;;;;;0.85;0.68;;;23.80;51.10;;;;;;5133917;28;20078;-50
2021/08/08 09:39:56;;;;;;;0.63;0.63;;;23.80;51.10;;;;;;5133686;28;20525;-47
2021/08/08 09:42:25;;;;;;;0.60;0.60;;;23.80;51.10;;;;;;5115241;28;20051;-46
2021/08/08 09:44:54;;;;;;;0.60;0.60;;;23.80;51.10;;;;;;5115534;28;20376;-49
2021/08/08 09:47:20;;;;;;;0.68;0.68;;;23.80;51.10;;;;;;5133536;28;20051;-46
2021/08/08 09:49:59;;;;;;;0.65;0.65;;;23.80;51.10;;;;;;5133740;28;20491;-50
2021/08/08 09:52:25;;;;;;;0.60;0.60;;;23.80;51.10;;;;;;5133606;28;20051;-47
2021/08/08 09:54:52;;;;;;;0.60;0.60;;;23.80;51.10;;;;;;5133666;28;20054;-47
2021/08/08 09:57:17;;;;;;;0.65;0.60;;;23.80;51.10;;;;;;5133529;28;20099;-46
2021/08/08 09:59:49;;;;;;;0.60;0.60;;;23.80;51.10;;;;;;5133419;28;20047;-47
2021/08/08 10:02:22;;;;;;;0.63;0.63;;;23.80;51.10;;;;;;5133843;28;20043;-47
2021/08/08 10:04:49;;;;;;;0.50;0.50;;;23.80;51.10;;;;;;5133534;28;20091;-49
2021/08/08 10:07:18;;;;;;;0.60;0.60;;;23.80;51.10;;;;;;5114618;28;20051;-51
2021/08/08 10:09:45;;;;;;;1.17;0.70;;;23.80;51.10;;;;;;5133421;28;20063;-48
2021/08/08 10:12:37;;;;;;;0.50;0.50;;;23.80;51.10;;;;;;5133329;28;20050;-49
2021/08/08 10:15:03;;;;;;;0.70;0.70;;;23.80;51.20;;;;;;5133601;28;20100;-50
2021/08/08 10:17:31;;;;;;;0.60;0.60;;;23.70;51.10;;;;;;5133656;28;20929;-50
2021/08/08 10:19:57;;;;;;;0.50;0.50;;;23.70;51.20;;;;;;5133257;28;20096;-50
2021/08/08 10:22:23;;;;;;;1.42;0.85;;;23.70;51.20;;;;;;5134227;27;20051;-51
2021/08/08 10:24:54;;;;;;;0.65;0.65;;;23.70;51.20;;;;;;5118436;28;20058;-53
2021/08/08 10:27:21;;;;;;;0.57;0.57;;;23.70;51.20;;;;;;5137000;28;20043;-50
2021/08/08 10:29:49;;;;;;;0.85;0.70;;;23.80;51.30;;;;;;5118697;28;20047;-49
2021/08/08 10:32:15;;;;;;;0.80;0.60;;;23.80;51.20;;;;;;5136817;28;20051;-51
2021/08/08 10:34:40;;;;;;;0.75;0.60;;;23.70;51.10;;;;;;5136640;28;20051;-51
2021/08/08 10:37:14;;;;;;;0.60;0.60;;;23.80;51.20;;;;;;5116654;28;20048;-52
2021/08/08 10:39:42;;;;;;;0.60;0.60;;;23.80;51.10;;;;;;5136678;28;20064;-52
2021/08/08 10:42:11;;;;;;;0.60;0.60;;;23.90;50.90;;;;;;5136642;28;20055;-51
2021/08/08 10:44:48;;;;;;;0.60;0.60;;;24.00;50.80;;;;;;5116337;28;20088;-49
2021/08/08 10:47:33;;;;;;;0.60;0.60;;;24.00;50.60;;;;;;5136461;28;20126;-51
2021/08/08 10:50:14;;;;;;;0.50;0.50;;;24.10;50.50;;;;;;5136512;28;20047;-52
2021/08/08 10:52:45;;;;;;;0.52;0.52;;;24.10;50.50;;;;;;5136546;28;20047;-52
2021/08/08 10:55:21;;;;;;;;;;;24.10;50.40;;;;;;5137280;28;20054;-49
2021/08/08 10:57:48;;;;;;;0.70;0.70;;;24.10;50.90;;;;;;5136236;28;19960;-53
2021/08/08 11:00:15;;;;;;;0.52;0.52;;;24.10;50.90;;;;;;5136279;28;20050;-50
2021/08/08 11:02:44;;;;;;;0.65;0.65;;;24.10;50.30;;;;;;5136942;28;20502;-50
2021/08/08 11:05:16;;;;;;;0.55;0.55;;;24.20;50.30;;;;;;5136336;28;20058;-50
2021/08/08 11:07:44;;;;;;;0.50;0.50;;;24.20;50.20;;;;;;5136172;28;20081;-48
2021/08/08 11:10:10;;;;;;;0.60;0.60;;;24.30;50.20;;;;;;5136203;28;20047;-49
2021/08/08 11:12:38;;;;;;;0.60;0.60;;;24.20;50.00;;;;;;5136436;28;20130;-51
2021/08/08 11:15:09;;;;;;;0.50;0.50;;;24.30;50.10;;;;;;5136045;28;20059;-48
2021/08/08 11:17:35;;;;;;;0.50;0.50;;;24.30;50.00;;;;;;5136218;28;21584;-54
2021/08/08 11:20:00;;;;;;;0.50;0.50;;;24.30;50.00;;;;;;5135906;28;20415;-49
2021/08/08 11:22:27;;;;;;;0.40;0.40;;;24.20;49.90;;;;;;5135888;28;20047;-50
2021/08/08 11:24:56;;;;;;;0.60;0.60;;;24.30;50.00;;;;;;5135962;28;20047;-52
2021/08/08 11:27:38;;;;;;;0.57;0.50;;;24.30;50.10;;;;;;5136289;28;20043;-53
2021/08/08 11:30:10;;;;;;;0.50;0.50;;;24.20;50.00;;;;;;5136228;28;20049;-54
2021/08/08 11:32:36;;;;;;;0.52;0.52;;;24.20;50.00;;;;;;5136170;28;20059;-54
2021/08/08 11:35:05;;;;;;;0.60;0.60;;;24.20;50.00;;;;;;5135895;27;20047;-49
2021/08/08 11:37:40;;;;;;;0.60;0.60;;;24.20;50.00;;;;;;5135618;28;20079;-51
2021/08/08 11:40:21;;;;;;;0.60;0.60;;;24.20;50.00;;;;;;5135812;28;20054;-54
2021/08/08 11:42:47;;;;;;;;;;;24.20;50.10;;;;;;5136165;28;20059;-50
2021/08/08 11:45:13;;;;;;;0.60;0.60;;;24.20;50.10;;;;;;5117197;28;19922;-52
2021/08/08 11:47:38;;;;;;;0.70;0.70;;;24.30;50.10;;;;;;5135482;28;20398;-49
2021/08/08 11:50:06;;;;;;;0.57;0.57;;;24.30;50.10;;;;;;5135837;28;20129;-50
2021/08/08 11:52:32;;;;;;;0.40;0.40;;;24.40;49.90;;;;;;5135502;28;20479;-49
2021/08/08 11:55:06;;;;;;;0.50;0.50;;;24.40;49.80;;;;;;5135353;28;20073;-53
2021/08/08 11:57:33;;;;;;;0.65;0.65;;;24.40;49.80;;;;;;5135537;28;20059;-48
2021/08/08 12:00:00;;;;;;;0.60;0.60;;;24.40;49.70;;;;;;5135258;28;20130;-47
2021/08/08 12:02:27;;;;;;;0.50;0.50;;;24.40;49.70;;;;;;5135554;28;20051;-46
2021/08/08 12:04:53;;;;;;;0.60;0.60;;;24.40;49.80;;;;;;5117439;28;20062;-47
2021/08/08 12:07:22;;;;;;;0.57;0.57;;;24.40;49.70;;;;;;5135141;28;20106;-48
2021/08/08 12:09:51;;;;;;;0.50;0.50;;;24.40;49.80;;;;;;5135779;28;20050;-49
2021/08/08 12:12:17;;;;;;;0.65;0.63;;;24.40;49.70;;;;;;5135457;28;20039;-48
2021/08/08 12:14:47;;;;;;;0.65;0.65;;;24.40;49.80;;;;;;5135753;28;20055;-48
2021/08/08 12:17:17;;;;;;;0.50;0.50;;;24.40;49.70;;;;;;5135049;28;20043;-52
2021/08/08 12:19:49;;;;;;;0.50;0.50;;;24.40;49.70;;;;;;5134992;28;20050;-51
2021/08/08 12:22:18;;;;;;;1.00;0.60;;;24.40;49.70;;;;;;5135383;28;20051;-49
2021/08/08 12:24:50;;;;;;;0.60;0.60;;;24.40;49.80;;;;;;5135097;28;20100;-51
2021/08/08 12:27:28;;;;;;;0.47;0.47;;;24.30;49.70;;;;;;5135227;28;20053;-53
2021/08/08 12:29:57;;;;;;;0.43;0.43;;;24.40;49.80;;;;;;5134868;28;20045;-51
2021/08/08 12:32:22;;;;;;;0.50;0.50;;;24.40;49.80;;;;;;5134826;28;20051;-51
2021/08/08 12:34:50;;;;;;;0.50;0.50;;;24.30;49.80;;;;;;5134787;28;20054;-50
2021/08/08 12:37:21;;;;;;;0.43;0.43;;;24.30;49.80;;;;;;5134696;28;20533;-52
2021/08/08 12:39:48;;;;;;;0.50;0.50;;;24.40;50.00;;;;;;5134658;28;20055;-48
2021/08/08 12:42:20;;;;;;;0.52;0.50;;;24.40;49.90;;;;;;5134612;28;20471;-52
2021/08/08 12:44:48;;;;;;;0.68;0.68;;;24.40;49.80;;;;;;5134658;27;20051;-49
2021/08/08 12:47:25;;;;;;;0.60;0.60;;;24.50;49.70;;;;;;5115886;28;21235;-49
2021/08/08 12:49:50;;;;;;;0.60;0.60;;;24.50;49.60;;;;;;5134949;28;20059;-49